Airport View

Enter AWOS ICAO identifier for current METAR.

ex. KFNL

KBNL 011155Z AUTO 00000KT 10SM CLR 12/11 A3003 RMK AO2

1 Oct 2020 11:56

Frequency: 119.775

Phone: 803-259-4536

Other Area AWOS: KAQX - KAIK - KOGB - KAGS

TAF AMD KOGB 010859Z 0109/0206 VRB03KT 6SM BR SKC TEMPO 0109/0111 3SM BR FM011100 VRB02KT 2SM BR SKC FM011400 25008KT P6SM SKC